sensor_id;sensor_type;location;lat;lon;timestamp;temperature;humidity
6865;DHT22;3471;49.678;8.388;2023-04-02T00:00:30;11.50;99.90
6865;DHT22;3471;49.678;8.388;2023-04-02T00:03:02;11.50;99.90
6865;DHT22;3471;49.678;8.388;2023-04-02T00:08:20;11.50;99.90
6865;DHT22;3471;49.678;8.388;2023-04-02T00:11:26;11.50;99.90
6865;DHT22;3471;49.678;8.388;2023-04-02T00:13:43;11.50;99.90
6865;DHT22;3471;49.678;8.388;2023-04-02T00:16:16;11.50;99.90
6865;DHT22;3471;49.678;8.388;2023-04-02T00:18:47;11.60;99.90
6865;DHT22;3471;49.678;8.388;2023-04-02T00:21:23;11.60;99.90
6865;DHT22;3471;49.678;8.388;2023-04-02T00:23:53;11.60;99.90
6865;DHT22;3471;49.678;8.388;2023-04-02T00:26:42;11.70;99.90
6865;DHT22;3471;49.678;8.388;2023-04-02T00:29:11;11.70;99.90
6865;DHT22;3471;49.678;8.388;2023-04-02T00:31:40;11.70;99.90
6865;DHT22;3471;49.678;8.388;2023-04-02T00:34:08;11.70;99.90
6865;DHT22;3471;49.678;8.388;2023-04-02T00:36:39;11.70;99.90
6865;DHT22;3471;49.678;8.388;2023-04-02T00:39:12;11.70;99.90
6865;DHT22;3471;49.678;8.388;2023-04-02T00:41:39;11.70;99.90
6865;DHT22;3471;49.678;8.388;2023-04-02T00:44:13;11.70;99.90
6865;DHT22;3471;49.678;8.388;2023-04-02T00:46:42;11.70;99.90
6865;DHT22;3471;49.678;8.388;2023-04-02T00:49:35;11.70;99.90
6865;DHT22;3471;49.678;8.388;2023-04-02T00:52:03;11.70;99.90
6865;DHT22;3471;49.678;8.388;2023-04-02T00:54:33;11.70;99.90
6865;DHT22;3471;49.678;8.388;2023-04-02T00:57:01;11.70;99.90
6865;DHT22;3471;49.678;8.388;2023-04-02T00:59:35;11.70;99.90
6865;DHT22;3471;49.678;8.388;2023-04-02T01:05:01;11.70;99.90
6865;DHT22;3471;49.678;8.388;2023-04-02T01:10:41;11.60;99.90
6865;DHT22;3471;49.678;8.388;2023-04-02T01:13:17;11.60;99.90
6865;DHT22;3471;49.678;8.388;2023-04-02T01:16:10;11.60;99.90
6865;DHT22;3471;49.678;8.388;2023-04-02T01:21:37;11.60;99.90
6865;DHT22;3471;49.678;8.388;2023-04-02T01:24:09;11.60;99.90
6865;DHT22;3471;49.678;8.388;2023-04-02T01:26:58;11.50;99.90
6865;DHT22;3471;49.678;8.388;2023-04-02T01:29:34;11.50;99.90
6865;DHT22;3471;49.678;8.388;2023-04-02T01:32:05;11.50;99.90
6865;DHT22;3471;49.678;8.388;2023-04-02T01:34:32;11.50;99.90
6865;DHT22;3471;49.678;8.388;2023-04-02T01:43:10;11.50;99.90
6865;DHT22;3471;49.678;8.388;2023-04-02T01:45:37;11.50;99.90
6865;DHT22;3471;49.678;8.388;2023-04-02T01:48:23;11.50;99.90
6865;DHT22;3471;49.678;8.388;2023-04-02T01:50:52;11.40;99.90
6865;DHT22;3471;49.678;8.388;2023-04-02T01:53:21;11.40;99.90
6865;DHT22;3471;49.678;8.388;2023-04-02T01:55:50;11.40;99.90
6865;DHT22;3471;49.678;8.388;2023-04-02T01:58:20;11.40;99.90
6865;DHT22;3471;49.678;8.388;2023-04-02T02:00:51;11.40;99.90
6865;DHT22;3471;49.678;8.388;2023-04-02T02:03:18;11.40;99.90
6865;DHT22;3471;49.678;8.388;2023-04-02T02:05:45;11.40;99.90
6865;DHT22;3471;49.678;8.388;2023-04-02T02:08:37;11.50;99.90
6865;DHT22;3471;49.678;8.388;2023-04-02T02:11:04;11.50;99.90
6865;DHT22;3471;49.678;8.388;2023-04-02T02:13:30;11.50;99.90
6865;DHT22;3471;49.678;8.388;2023-04-02T02:15:59;11.40;99.90
6865;DHT22;3471;49.678;8.388;2023-04-02T02:18:26;11.40;99.90
6865;DHT22;3471;49.678;8.388;2023-04-02T02:20:53;11.40;99.90
6865;DHT22;3471;49.678;8.388;2023-04-02T02:23:21;11.40;99.90
6865;DHT22;3471;49.678;8.388;2023-04-02T02:25:47;11.40;99.90
6865;DHT22;3471;49.678;8.388;2023-04-02T02:28:20;11.30;99.90
6865;DHT22;3471;49.678;8.388;2023-04-02T02:31:06;11.30;99.90
6865;DHT22;3471;49.678;8.388;2023-04-02T02:33:44;11.30;99.90
6865;DHT22;3471;49.678;8.388;2023-04-02T02:36:37;11.40;99.90
6865;DHT22;3471;49.678;8.388;2023-04-02T02:39:24;11.40;99.90
6865;DHT22;3471;49.678;8.388;2023-04-02T02:41:59;11.40;99.90
6865;DHT22;3471;49.678;8.388;2023-04-02T02:44:32;11.40;99.90
6865;DHT22;3471;49.678;8.388;2023-04-02T02:47:24;11.40;99.90
6865;DHT22;3471;49.678;8.388;2023-04-02T02:49:51;11.40;99.90
6865;DHT22;3471;49.678;8.388;2023-04-02T02:52:34;11.40;99.90
6865;DHT22;3471;49.678;8.388;2023-04-02T02:57:36;11.30;99.90
6865;DHT22;3471;49.678;8.388;2023-04-02T03:00:04;11.30;99.90
6865;DHT22;3471;49.678;8.388;2023-04-02T03:02:35;11.30;99.90
6865;DHT22;3471;49.678;8.388;2023-04-02T03:05:01;11.20;99.90
6865;DHT22;3471;49.678;8.388;2023-04-02T03:07:27;11.20;99.90
6865;DHT22;3471;49.678;8.388;2023-04-02T03:10:16;11.20;99.90
6865;DHT22;3471;49.678;8.388;2023-04-02T03:13:07;11.20;99.90
6865;DHT22;3471;49.678;8.388;2023-04-02T03:15:45;11.20;99.90
6865;DHT22;3471;49.678;8.388;2023-04-02T03:20:47;11.20;99.90
6865;DHT22;3471;49.678;8.388;2023-04-02T03:28:59;11.20;99.90
6865;DHT22;3471;49.678;8.388;2023-04-02T03:31:32;11.20;99.90
6865;DHT22;3471;49.678;8.388;2023-04-02T03:34:07;11.30;99.90
6865;DHT22;3471;49.678;8.388;2023-04-02T03:36:47;11.20;99.90
6865;DHT22;3471;49.678;8.388;2023-04-02T03:39:21;11.20;99.90
6865;DHT22;3471;49.678;8.388;2023-04-02T03:44:25;11.30;99.90
6865;DHT22;3471;49.678;8.388;2023-04-02T03:47:03;11.30;99.90
6865;DHT22;3471;49.678;8.388;2023-04-02T03:52:08;11.30;99.90
6865;DHT22;3471;49.678;8.388;2023-04-02T03:54:35;11.40;99.90
6865;DHT22;3471;49.678;8.388;2023-04-02T03:57:01;11.30;99.90
6865;DHT22;3471;49.678;8.388;2023-04-02T04:04:29;11.40;99.90
6865;DHT22;3471;49.678;8.388;2023-04-02T04:06:56;11.40;99.90
6865;DHT22;3471;49.678;8.388;2023-04-02T04:09:32;11.40;99.90
6865;DHT22;3471;49.678;8.388;2023-04-02T04:14:41;11.40;99.90
6865;DHT22;3471;49.678;8.388;2023-04-02T04:17:44;11.40;99.90
6865;DHT22;3471;49.678;8.388;2023-04-02T04:20:25;11.40;99.90
6865;DHT22;3471;49.678;8.388;2023-04-02T04:22:52;11.30;99.90
6865;DHT22;3471;49.678;8.388;2023-04-02T04:25:25;11.30;99.90
6865;DHT22;3471;49.678;8.388;2023-04-02T04:28:18;11.30;99.90
6865;DHT22;3471;49.678;8.388;2023-04-02T04:30:55;11.30;99.90
6865;DHT22;3471;49.678;8.388;2023-04-02T04:33:31;11.30;99.90
6865;DHT22;3471;49.678;8.388;2023-04-02T04:36:00;11.30;99.90
6865;DHT22;3471;49.678;8.388;2023-04-02T04:38:32;11.30;99.90
6865;DHT22;3471;49.678;8.388;2023-04-02T04:41:14;11.30;99.90
6865;DHT22;3471;49.678;8.388;2023-04-02T04:54:25;11.40;99.90
6865;DHT22;3471;49.678;8.388;2023-04-02T04:56:56;11.40;99.90
6865;DHT22;3471;49.678;8.388;2023-04-02T04:59:34;11.30;99.90
6865;DHT22;3471;49.678;8.388;2023-04-02T05:02:09;11.30;99.90
6865;DHT22;3471;49.678;8.388;2023-04-02T05:04:39;11.40;99.90
6865;DHT22;3471;49.678;8.388;2023-04-02T05:09:52;11.40;99.90
6865;DHT22;3471;49.678;8.388;2023-04-02T05:12:54;11.40;99.90
6865;DHT22;3471;49.678;8.388;2023-04-02T05:15:39;11.40;99.90
6865;DHT22;3471;49.678;8.388;2023-04-02T05:23:28;11.40;99.90
6865;DHT22;3471;49.678;8.388;2023-04-02T05:26:23;11.40;99.90
6865;DHT22;3471;49.678;8.388;2023-04-02T05:28:51;11.40;99.90
6865;DHT22;3471;49.678;8.388;2023-04-02T05:31:29;11.30;99.90
6865;DHT22;3471;49.678;8.388;2023-04-02T05:34:01;11.40;99.90
6865;DHT22;3471;49.678;8.388;2023-04-02T05:36:28;11.40;99.90
6865;DHT22;3471;49.678;8.388;2023-04-02T05:38:55;11.40;99.90
6865;DHT22;3471;49.678;8.388;2023-04-02T05:41:33;11.40;99.90
6865;DHT22;3471;49.678;8.388;2023-04-02T05:44:23;11.40;99.90
6865;DHT22;3471;49.678;8.388;2023-04-02T05:50:35;11.40;99.90
6865;DHT22;3471;49.678;8.388;2023-04-02T05:52:33;11.40;99.90
6865;DHT22;3471;49.678;8.388;2023-04-02T05:57:51;11.50;99.90
6865;DHT22;3471;49.678;8.388;2023-04-02T06:03:01;11.60;99.90
6865;DHT22;3471;49.678;8.388;2023-04-02T06:05:35;11.60;99.90
6865;DHT22;3471;49.678;8.388;2023-04-02T06:08:10;11.60;99.90
6865;DHT22;3471;49.678;8.388;2023-04-02T06:10:50;11.70;99.90
6865;DHT22;3471;49.678;8.388;2023-04-02T06:13:19;11.70;99.90
6865;DHT22;3471;49.678;8.388;2023-04-02T06:15:45;11.70;99.90
6865;DHT22;3471;49.678;8.388;2023-04-02T06:18:21;11.70;99.90
6865;DHT22;3471;49.678;8.388;2023-04-02T06:20:48;11.80;99.90
6865;DHT22;3471;49.678;8.388;2023-04-02T06:26:16;11.80;99.90
6865;DHT22;3471;49.678;8.388;2023-04-02T06:28:48;11.90;99.90
6865;DHT22;3471;49.678;8.388;2023-04-02T06:33:54;11.90;99.90
6865;DHT22;3471;49.678;8.388;2023-04-02T06:36:21;11.90;99.90
6865;DHT22;3471;49.678;8.388;2023-04-02T06:38:48;11.90;99.90
6865;DHT22;3471;49.678;8.388;2023-04-02T06:41:22;12.00;99.90
6865;DHT22;3471;49.678;8.388;2023-04-02T06:44:01;12.00;99.90
6865;DHT22;3471;49.678;8.388;2023-04-02T06:46:39;12.00;99.90
6865;DHT22;3471;49.678;8.388;2023-04-02T06:51:48;12.00;99.90
6865;DHT22;3471;49.678;8.388;2023-04-02T06:54:16;12.00;99.90
6865;DHT22;3471;49.678;8.388;2023-04-02T06:56:45;12.00;99.90
6865;DHT22;3471;49.678;8.388;2023-04-02T06:59:12;12.00;99.90
6865;DHT22;3471;49.678;8.388;2023-04-02T07:04:10;12.00;99.90
6865;DHT22;3471;49.678;8.388;2023-04-02T07:06:36;12.00;99.90
6865;DHT22;3471;49.678;8.388;2023-04-02T07:09:03;12.00;99.90
6865;DHT22;3471;49.678;8.388;2023-04-02T07:11:28;12.10;99.90
6865;DHT22;3471;49.678;8.388;2023-04-02T07:13:55;12.10;99.90
6865;DHT22;3471;49.678;8.388;2023-04-02T07:16:23;12.10;99.90
6865;DHT22;3471;49.678;8.388;2023-04-02T07:18:50;12.10;99.90
6865;DHT22;3471;49.678;8.388;2023-04-02T07:21:16;12.20;99.90
6865;DHT22;3471;49.678;8.388;2023-04-02T07:23:42;12.20;99.90
6865;DHT22;3471;49.678;8.388;2023-04-02T07:26:12;12.30;99.90
6865;DHT22;3471;49.678;8.388;2023-04-02T07:28:37;12.30;99.90
6865;DHT22;3471;49.678;8.388;2023-04-02T07:31:03;12.30;99.90
6865;DHT22;3471;49.678;8.388;2023-04-02T07:33:34;12.30;99.90
6865;DHT22;3471;49.678;8.388;2023-04-02T07:35:59;12.40;99.90
6865;DHT22;3471;49.678;8.388;2023-04-02T07:38:25;12.40;99.90
6865;DHT22;3471;49.678;8.388;2023-04-02T07:40:50;12.50;99.90
6865;DHT22;3471;49.678;8.388;2023-04-02T07:43:16;12.50;99.90
6865;DHT22;3471;49.678;8.388;2023-04-02T07:45:42;12.60;99.90
6865;DHT22;3471;49.678;8.388;2023-04-02T07:48:09;12.60;99.90
6865;DHT22;3471;49.678;8.388;2023-04-02T07:50:35;12.70;99.90
6865;DHT22;3471;49.678;8.388;2023-04-02T07:53:01;12.70;99.90
6865;DHT22;3471;49.678;8.388;2023-04-02T07:55:27;12.80;99.90
6865;DHT22;3471;49.678;8.388;2023-04-02T07:57:55;12.80;99.90
6865;DHT22;3471;49.678;8.388;2023-04-02T08:00:22;12.90;99.90
6865;DHT22;3471;49.678;8.388;2023-04-02T08:02:48;12.90;99.90
6865;DHT22;3471;49.678;8.388;2023-04-02T08:05:14;13.00;99.90
6865;DHT22;3471;49.678;8.388;2023-04-02T08:07:40;13.00;99.90
6865;DHT22;3471;49.678;8.388;2023-04-02T08:10:08;13.10;99.90
6865;DHT22;3471;49.678;8.388;2023-04-02T08:12:34;13.10;99.90
6865;DHT22;3471;49.678;8.388;2023-04-02T08:15:00;13.20;99.90
6865;DHT22;3471;49.678;8.388;2023-04-02T08:17:26;13.20;99.90
6865;DHT22;3471;49.678;8.388;2023-04-02T08:19:58;13.30;99.90
6865;DHT22;3471;49.678;8.388;2023-04-02T08:22:28;13.40;99.90
6865;DHT22;3471;49.678;8.388;2023-04-02T08:24:54;13.50;99.90
6865;DHT22;3471;49.678;8.388;2023-04-02T08:27:21;13.50;99.90
6865;DHT22;3471;49.678;8.388;2023-04-02T08:29:47;13.60;99.90
6865;DHT22;3471;49.678;8.388;2023-04-02T08:32:13;13.70;99.90
6865;DHT22;3471;49.678;8.388;2023-04-02T08:34:43;13.70;99.90
6865;DHT22;3471;49.678;8.388;2023-04-02T08:37:11;13.70;99.90
6865;DHT22;3471;49.678;8.388;2023-04-02T08:39:37;13.70;99.90
6865;DHT22;3471;49.678;8.388;2023-04-02T08:47:48;13.90;99.90
6865;DHT22;3471;49.678;8.388;2023-04-02T08:50:33;13.90;99.90
6865;DHT22;3471;49.678;8.388;2023-04-02T08:53:02;14.00;99.90
6865;DHT22;3471;49.678;8.388;2023-04-02T08:56:01;14.10;99.90
6865;DHT22;3471;49.678;8.388;2023-04-02T09:04:02;14.30;99.90
6865;DHT22;3471;49.678;8.388;2023-04-02T09:06:29;14.30;99.90
6865;DHT22;3471;49.678;8.388;2023-04-02T09:08:56;14.30;99.90
6865;DHT22;3471;49.678;8.388;2023-04-02T09:11:24;14.00;99.90
6865;DHT22;3471;49.678;8.388;2023-04-02T09:13:58;13.70;99.90
6865;DHT22;3471;49.678;8.388;2023-04-02T09:16:48;13.20;99.90
6865;DHT22;3471;49.678;8.388;2023-04-02T09:19:22;12.90;99.90
6865;DHT22;3471;49.678;8.388;2023-04-02T09:22:07;12.60;99.90
6865;DHT22;3471;49.678;8.388;2023-04-02T09:24:34;12.40;99.90
6865;DHT22;3471;49.678;8.388;2023-04-02T09:27:00;12.20;99.90
6865;DHT22;3471;49.678;8.388;2023-04-02T09:29:46;12.00;99.90
6865;DHT22;3471;49.678;8.388;2023-04-02T09:37:40;11.40;99.90
6865;DHT22;3471;49.678;8.388;2023-04-02T09:40:22;11.30;99.90
6865;DHT22;3471;49.678;8.388;2023-04-02T09:42:49;11.10;99.90
6865;DHT22;3471;49.678;8.388;2023-04-02T09:45:25;11.00;99.90
6865;DHT22;3471;49.678;8.388;2023-04-02T09:47:53;10.90;99.90
6865;DHT22;3471;49.678;8.388;2023-04-02T09:52:45;10.80;99.90
6865;DHT22;3471;49.678;8.388;2023-04-02T09:57:40;10.60;99.90
6865;DHT22;3471;49.678;8.388;2023-04-02T10:00:24;10.60;99.90
6865;DHT22;3471;49.678;8.388;2023-04-02T10:03:05;10.60;99.90
6865;DHT22;3471;49.678;8.388;2023-04-02T10:05:32;10.60;99.90
6865;DHT22;3471;49.678;8.388;2023-04-02T10:08:17;10.60;99.90
6865;DHT22;3471;49.678;8.388;2023-04-02T10:10:47;10.60;99.90
6865;DHT22;3471;49.678;8.388;2023-04-02T10:13:45;10.50;99.90
6865;DHT22;3471;49.678;8.388;2023-04-02T10:19:05;10.50;99.90
6865;DHT22;3471;49.678;8.388;2023-04-02T10:21:37;10.40;99.90
6865;DHT22;3471;49.678;8.388;2023-04-02T10:24:15;10.30;99.90
6865;DHT22;3471;49.678;8.388;2023-04-02T10:27:05;10.30;99.90
6865;DHT22;3471;49.678;8.388;2023-04-02T10:43:13;10.60;99.90
6865;DHT22;3471;49.678;8.388;2023-04-02T10:48:37;10.60;99.90
6865;DHT22;3471;49.678;8.388;2023-04-02T10:57:48;10.70;99.90
6865;DHT22;3471;49.678;8.388;2023-04-02T11:00:15;10.70;99.90
6865;DHT22;3471;49.678;8.388;2023-04-02T11:08:20;10.60;99.90
6865;DHT22;3471;49.678;8.388;2023-04-02T11:10:51;10.60;99.90
6865;DHT22;3471;49.678;8.388;2023-04-02T11:15:57;10.70;99.90
6865;DHT22;3471;49.678;8.388;2023-04-02T11:18:28;10.70;99.90
6865;DHT22;3471;49.678;8.388;2023-04-02T11:21:01;10.80;99.90
6865;DHT22;3471;49.678;8.388;2023-04-02T11:23:32;10.80;99.90
6865;DHT22;3471;49.678;8.388;2023-04-02T11:26:40;10.80;99.90
6865;DHT22;3471;49.678;8.388;2023-04-02T11:31:44;10.70;99.90
6865;DHT22;3471;49.678;8.388;2023-04-02T11:34:55;10.60;99.90
6865;DHT22;3471;49.678;8.388;2023-04-02T11:37:02;10.60;99.90
6865;DHT22;3471;49.678;8.388;2023-04-02T11:39:52;10.60;99.90
6865;DHT22;3471;49.678;8.388;2023-04-02T11:42:32;10.60;99.90
6865;DHT22;3471;49.678;8.388;2023-04-02T11:50:41;10.70;99.90
6865;DHT22;3471;49.678;8.388;2023-04-02T11:55:37;10.80;99.90
6865;DHT22;3471;49.678;8.388;2023-04-02T12:11:31;11.30;99.90
6865;DHT22;3471;49.678;8.388;2023-04-02T12:13:57;11.30;99.90
6865;DHT22;3471;49.678;8.388;2023-04-02T12:16:24;11.30;99.90
6865;DHT22;3471;49.678;8.388;2023-04-02T12:18:55;11.30;99.90
6865;DHT22;3471;49.678;8.388;2023-04-02T12:21:24;11.30;99.90
6865;DHT22;3471;49.678;8.388;2023-04-02T12:23:56;11.20;99.90
6865;DHT22;3471;49.678;8.388;2023-04-02T12:26:29;11.20;99.90
6865;DHT22;3471;49.678;8.388;2023-04-02T12:29:22;11.20;99.90
6865;DHT22;3471;49.678;8.388;2023-04-02T12:31:53;11.00;99.90
6865;DHT22;3471;49.678;8.388;2023-04-02T12:34:21;11.00;99.90
6865;DHT22;3471;49.678;8.388;2023-04-02T12:36:55;11.00;99.90
6865;DHT22;3471;49.678;8.388;2023-04-02T12:39:22;10.90;99.90
6865;DHT22;3471;49.678;8.388;2023-04-02T12:41:48;10.90;99.90
6865;DHT22;3471;49.678;8.388;2023-04-02T12:44:22;10.90;99.90
6865;DHT22;3471;49.678;8.388;2023-04-02T12:46:48;10.80;99.90
6865;DHT22;3471;49.678;8.388;2023-04-02T12:51:50;10.80;99.90
6865;DHT22;3471;49.678;8.388;2023-04-02T12:54:17;10.80;99.90
6865;DHT22;3471;49.678;8.388;2023-04-02T12:56:45;10.80;99.90
6865;DHT22;3471;49.678;8.388;2023-04-02T12:59:34;10.70;99.90
6865;DHT22;3471;49.678;8.388;2023-04-02T13:02:13;10.70;99.90
6865;DHT22;3471;49.678;8.388;2023-04-02T13:04:52;10.60;99.90
6865;DHT22;3471;49.678;8.388;2023-04-02T13:07:20;10.50;99.90
6865;DHT22;3471;49.678;8.388;2023-04-02T13:09:53;10.50;99.90
6865;DHT22;3471;49.678;8.388;2023-04-02T13:14:58;10.50;99.90
6865;DHT22;3471;49.678;8.388;2023-04-02T13:17:45;10.50;99.90
6865;DHT22;3471;49.678;8.388;2023-04-02T13:20:33;10.50;99.90
6865;DHT22;3471;49.678;8.388;2023-04-02T13:23:01;10.50;99.90
6865;DHT22;3471;49.678;8.388;2023-04-02T13:25:33;10.50;99.90
6865;DHT22;3471;49.678;8.388;2023-04-02T13:27:59;10.50;99.90
6865;DHT22;3471;49.678;8.388;2023-04-02T13:30:27;10.50;99.90
6865;DHT22;3471;49.678;8.388;2023-04-02T13:32:53;10.50;99.90
6865;DHT22;3471;49.678;8.388;2023-04-02T13:35:20;10.40;99.90
6865;DHT22;3471;49.678;8.388;2023-04-02T13:37:46;10.40;99.90
6865;DHT22;3471;49.678;8.388;2023-04-02T13:40:13;10.30;99.90
6865;DHT22;3471;49.678;8.388;2023-04-02T13:42:41;10.30;99.90
6865;DHT22;3471;49.678;8.388;2023-04-02T13:45:22;10.40;99.90
6865;DHT22;3471;49.678;8.388;2023-04-02T13:47:48;10.40;99.90
6865;DHT22;3471;49.678;8.388;2023-04-02T13:50:16;10.40;99.90
6865;DHT22;3471;49.678;8.388;2023-04-02T13:52:42;10.40;99.90
6865;DHT22;3471;49.678;8.388;2023-04-02T13:55:08;10.40;99.90
6865;DHT22;3471;49.678;8.388;2023-04-02T13:57:35;10.40;99.90
6865;DHT22;3471;49.678;8.388;2023-04-02T14:00:01;10.40;99.90
6865;DHT22;3471;49.678;8.388;2023-04-02T14:02:27;10.30;99.90
6865;DHT22;3471;49.678;8.388;2023-04-02T14:10:45;10.10;99.90
6865;DHT22;3471;49.678;8.388;2023-04-02T14:21:43;10.10;99.90
6865;DHT22;3471;49.678;8.388;2023-04-02T14:29:50;10.10;99.90
6865;DHT22;3471;49.678;8.388;2023-04-02T14:37:44;10.20;99.90
6865;DHT22;3471;49.678;8.388;2023-04-02T14:48:47;10.10;99.90
6865;DHT22;3471;49.678;8.388;2023-04-02T14:56:46;9.80;99.90
6865;DHT22;3471;49.678;8.388;2023-04-02T14:59:32;9.80;99.90
6865;DHT22;3471;49.678;8.388;2023-04-02T15:02:15;9.80;99.90
6865;DHT22;3471;49.678;8.388;2023-04-02T15:05:04;9.70;99.90
6865;DHT22;3471;49.678;8.388;2023-04-02T15:07:37;9.70;99.90
6865;DHT22;3471;49.678;8.388;2023-04-02T15:12:36;9.50;99.90
6865;DHT22;3471;49.678;8.388;2023-04-02T15:17:58;9.40;99.90
6865;DHT22;3471;49.678;8.388;2023-04-02T15:20:25;9.40;99.90
6865;DHT22;3471;49.678;8.388;2023-04-02T15:28:50;9.30;99.90
6865;DHT22;3471;49.678;8.388;2023-04-02T15:31:19;9.40;99.90
6865;DHT22;3471;49.678;8.388;2023-04-02T15:33:51;9.40;99.90
6865;DHT22;3471;49.678;8.388;2023-04-02T15:36:57;9.30;99.90
6865;DHT22;3471;49.678;8.388;2023-04-02T15:42:17;9.30;99.90
6865;DHT22;3471;49.678;8.388;2023-04-02T15:59:06;9.00;99.90
6865;DHT22;3471;49.678;8.388;2023-04-02T16:01:30;9.00;99.90
6865;DHT22;3471;49.678;8.388;2023-04-02T16:07:09;8.90;99.90
6865;DHT22;3471;49.678;8.388;2023-04-02T16:12:36;8.80;99.90
6865;DHT22;3471;49.678;8.388;2023-04-02T16:15:33;8.70;99.90
6865;DHT22;3471;49.678;8.388;2023-04-02T16:18:08;8.60;99.90
6865;DHT22;3471;49.678;8.388;2023-04-02T16:20:40;8.60;99.90
6865;DHT22;3471;49.678;8.388;2023-04-02T16:23:13;8.60;99.90
6865;DHT22;3471;49.678;8.388;2023-04-02T16:28:35;8.60;99.90
6865;DHT22;3471;49.678;8.388;2023-04-02T16:42:07;8.50;99.90
6865;DHT22;3471;49.678;8.388;2023-04-02T16:47:26;8.40;99.90
6865;DHT22;3471;49.678;8.388;2023-04-02T16:50:09;8.50;99.90
6865;DHT22;3471;49.678;8.388;2023-04-02T16:55:47;8.50;99.90
6865;DHT22;3471;49.678;8.388;2023-04-02T17:00:59;8.50;99.90
6865;DHT22;3471;49.678;8.388;2023-04-02T17:06:08;8.60;99.90
6865;DHT22;3471;49.678;8.388;2023-04-02T17:08:53;8.60;99.90
6865;DHT22;3471;49.678;8.388;2023-04-02T17:14:04;8.50;99.90
6865;DHT22;3471;49.678;8.388;2023-04-02T17:16:42;8.50;99.90
6865;DHT22;3471;49.678;8.388;2023-04-02T17:19:15;8.50;99.90
6865;DHT22;3471;49.678;8.388;2023-04-02T17:21:46;8.40;99.90
6865;DHT22;3471;49.678;8.388;2023-04-02T17:26:44;8.30;99.90
6865;DHT22;3471;49.678;8.388;2023-04-02T17:29:16;8.30;99.90
6865;DHT22;3471;49.678;8.388;2023-04-02T17:31:44;8.20;99.90
6865;DHT22;3471;49.678;8.388;2023-04-02T17:34:17;8.20;99.90
6865;DHT22;3471;49.678;8.388;2023-04-02T17:39:50;8.10;99.90
6865;DHT22;3471;49.678;8.388;2023-04-02T17:45:30;8.10;99.90
6865;DHT22;3471;49.678;8.388;2023-04-02T17:48:02;8.10;99.90
6865;DHT22;3471;49.678;8.388;2023-04-02T17:58:57;8.00;99.90
6865;DHT22;3471;49.678;8.388;2023-04-02T18:04:26;7.90;99.90
6865;DHT22;3471;49.678;8.388;2023-04-02T18:10:12;7.90;99.90
6865;DHT22;3471;49.678;8.388;2023-04-02T18:15:32;7.90;99.90
6865;DHT22;3471;49.678;8.388;2023-04-02T18:26:12;7.90;99.90
6865;DHT22;3471;49.678;8.388;2023-04-02T18:40:24;8.00;99.90
6865;DHT22;3471;49.678;8.388;2023-04-02T18:45:51;8.00;99.90
6865;DHT22;3471;49.678;8.388;2023-04-02T18:51:14;8.00;99.90
6865;DHT22;3471;49.678;8.388;2023-04-02T18:53:42;8.00;99.90
6865;DHT22;3471;49.678;8.388;2023-04-02T18:56:19;7.90;99.90
6865;DHT22;3471;49.678;8.388;2023-04-02T19:01:38;7.90;99.90
6865;DHT22;3471;49.678;8.388;2023-04-02T19:04:08;8.00;99.90
6865;DHT22;3471;49.678;8.388;2023-04-02T19:06:43;8.00;99.90
6865;DHT22;3471;49.678;8.388;2023-04-02T19:09:34;7.90;99.90
6865;DHT22;3471;49.678;8.388;2023-04-02T19:12:06;8.00;99.90
6865;DHT22;3471;49.678;8.388;2023-04-02T19:14:36;7.90;99.90
6865;DHT22;3471;49.678;8.388;2023-04-02T19:25:57;7.90;99.90
6865;DHT22;3471;49.678;8.388;2023-04-02T19:44:43;7.90;99.90
6865;DHT22;3471;49.678;8.388;2023-04-02T19:47:09;7.80;99.90
6865;DHT22;3471;49.678;8.388;2023-04-02T19:49:35;7.80;99.90
6865;DHT22;3471;49.678;8.388;2023-04-02T19:52:01;7.80;99.90
6865;DHT22;3471;49.678;8.388;2023-04-02T19:54:27;7.80;99.90
6865;DHT22;3471;49.678;8.388;2023-04-02T19:56:53;7.80;99.90
6865;DHT22;3471;49.678;8.388;2023-04-02T19:59:18;7.80;99.90
6865;DHT22;3471;49.678;8.388;2023-04-02T20:01:45;7.80;99.90
6865;DHT22;3471;49.678;8.388;2023-04-02T20:04:11;7.80;99.90
6865;DHT22;3471;49.678;8.388;2023-04-02T20:06:36;7.80;99.90
6865;DHT22;3471;49.678;8.388;2023-04-02T20:09:02;7.80;99.90
6865;DHT22;3471;49.678;8.388;2023-04-02T20:11:28;7.70;99.90
6865;DHT22;3471;49.678;8.388;2023-04-02T20:13:54;7.80;99.90
6865;DHT22;3471;49.678;8.388;2023-04-02T20:16:21;7.80;99.90
6865;DHT22;3471;49.678;8.388;2023-04-02T20:18:48;7.80;99.90
6865;DHT22;3471;49.678;8.388;2023-04-02T20:21:13;7.80;99.90
6865;DHT22;3471;49.678;8.388;2023-04-02T20:23:39;7.80;99.90
6865;DHT22;3471;49.678;8.388;2023-04-02T20:26:06;7.80;99.90
6865;DHT22;3471;49.678;8.388;2023-04-02T20:28:32;7.80;99.90
6865;DHT22;3471;49.678;8.388;2023-04-02T20:31:09;7.80;99.90
6865;DHT22;3471;49.678;8.388;2023-04-02T20:33:35;7.80;99.90
6865;DHT22;3471;49.678;8.388;2023-04-02T20:36:07;7.70;99.90
6865;DHT22;3471;49.678;8.388;2023-04-02T20:38:33;7.70;99.90
6865;DHT22;3471;49.678;8.388;2023-04-02T20:41:00;7.70;99.90
6865;DHT22;3471;49.678;8.388;2023-04-02T20:43:27;7.80;99.90
6865;DHT22;3471;49.678;8.388;2023-04-02T20:45:57;7.80;99.90
6865;DHT22;3471;49.678;8.388;2023-04-02T20:48:24;7.70;99.90
6865;DHT22;3471;49.678;8.388;2023-04-02T20:50:51;7.70;99.90
6865;DHT22;3471;49.678;8.388;2023-04-02T20:53:17;7.70;99.90
6865;DHT22;3471;49.678;8.388;2023-04-02T20:55:43;7.70;99.90
6865;DHT22;3471;49.678;8.388;2023-04-02T20:58:13;7.60;99.90
6865;DHT22;3471;49.678;8.388;2023-04-02T21:00:39;7.60;99.90
6865;DHT22;3471;49.678;8.388;2023-04-02T21:03:05;7.60;99.90
6865;DHT22;3471;49.678;8.388;2023-04-02T21:05:31;7.60;99.90
6865;DHT22;3471;49.678;8.388;2023-04-02T21:07:57;7.60;99.90
6865;DHT22;3471;49.678;8.388;2023-04-02T21:10:23;7.60;99.90
6865;DHT22;3471;49.678;8.388;2023-04-02T21:12:48;7.60;99.90
6865;DHT22;3471;49.678;8.388;2023-04-02T21:15:14;7.60;99.90
6865;DHT22;3471;49.678;8.388;2023-04-02T21:17:40;7.60;99.90
6865;DHT22;3471;49.678;8.388;2023-04-02T21:20:06;7.60;99.90
6865;DHT22;3471;49.678;8.388;2023-04-02T21:22:32;7.60;99.90
6865;DHT22;3471;49.678;8.388;2023-04-02T21:24:58;7.60;99.90
6865;DHT22;3471;49.678;8.388;2023-04-02T21:27:23;7.70;99.90
6865;DHT22;3471;49.678;8.388;2023-04-02T21:29:53;7.70;99.90
6865;DHT22;3471;49.678;8.388;2023-04-02T21:32:18;7.70;99.90
6865;DHT22;3471;49.678;8.388;2023-04-02T21:34:44;7.70;99.90
6865;DHT22;3471;49.678;8.388;2023-04-02T21:37:10;7.70;99.90
6865;DHT22;3471;49.678;8.388;2023-04-02T21:39:36;7.70;99.90
6865;DHT22;3471;49.678;8.388;2023-04-02T21:42:01;7.70;99.90
6865;DHT22;3471;49.678;8.388;2023-04-02T21:44:27;7.70;99.90
6865;DHT22;3471;49.678;8.388;2023-04-02T21:46:53;7.70;99.90
6865;DHT22;3471;49.678;8.388;2023-04-02T21:49:19;7.70;99.90
6865;DHT22;3471;49.678;8.388;2023-04-02T21:51:46;7.70;99.90
6865;DHT22;3471;49.678;8.388;2023-04-02T21:54:13;7.70;99.90
6865;DHT22;3471;49.678;8.388;2023-04-02T21:56:41;7.70;99.90
6865;DHT22;3471;49.678;8.388;2023-04-02T21:59:08;7.70;99.90
6865;DHT22;3471;49.678;8.388;2023-04-02T22:01:40;7.70;99.90
6865;DHT22;3471;49.678;8.388;2023-04-02T22:04:07;7.70;99.90
6865;DHT22;3471;49.678;8.388;2023-04-02T22:06:38;7.70;99.90
6865;DHT22;3471;49.678;8.388;2023-04-02T22:09:08;7.70;99.90
6865;DHT22;3471;49.678;8.388;2023-04-02T22:11:46;7.70;99.90
6865;DHT22;3471;49.678;8.388;2023-04-02T22:14:12;7.70;99.90
6865;DHT22;3471;49.678;8.388;2023-04-02T22:16:38;7.70;99.90
6865;DHT22;3471;49.678;8.388;2023-04-02T22:19:07;7.70;99.90
6865;DHT22;3471;49.678;8.388;2023-04-02T22:21:34;7.70;99.90